Time;durP1;ratioP1;P1;durP2;ratioP2;P2;SDS_P1;SDS_P2;PMS_P1;PMS_P2;Temp;Humidity;BMP_temperature;BMP_pressure;BME280_temperature;BME280_humidity;BME280_pressure;Samples;Min_cycle;Max_cycle;Signal;HPM_P1;HPM_P2
2024/02/02 00:00:52;;;;;;;29.80;11.20;;;;;;;4.15;100.00;103031.22;5087932;28;20463;-71
2024/02/02 00:03:17;;;;;;;30.55;11.50;;;;;;;4.16;100.00;103027.78;5088182;28;20032;-70
2024/02/02 00:05:44;;;;;;;31.90;12.10;;;;;;;4.17;100.00;103031.31;5087870;28;20032;-71
2024/02/02 00:08:09;;;;;;;31.45;11.38;;;;;;;4.16;100.00;103027.78;5090569;28;20118;-72
2024/02/02 00:10:35;;;;;;;33.13;12.05;;;;;;;4.17;100.00;103026.09;5087286;28;20111;-71
2024/02/02 00:13:00;;;;;;;31.70;11.35;;;;;;;4.19;100.00;103019.22;5090446;28;20458;-70
2024/02/02 00:15:26;;;;;;;30.77;12.15;;;;;;;4.18;100.00;103013.09;5088150;28;20101;-71
2024/02/02 00:17:51;;;;;;;33.17;12.25;;;;;;;4.21;100.00;103011.47;5088829;28;20032;-71
2024/02/02 00:20:17;;;;;;;29.65;11.82;;;;;;;4.24;100.00;103016.91;5088273;28;20059;-70
2024/02/02 00:22:42;;;;;;;29.77;11.57;;;;;;;4.23;100.00;103002.03;5087845;28;20052;-71
2024/02/02 00:25:07;;;;;;;30.98;12.63;;;;;;;4.23;100.00;103005.53;5090430;28;20094;-76
2024/02/02 00:27:33;;;;;;;33.28;12.48;;;;;;;4.26;100.00;103000.50;5081918;28;20052;-73
2024/02/02 00:29:58;;;;;;;30.95;13.07;;;;;;;4.27;100.00;102994.47;5088792;28;20107;-71
2024/02/02 00:32:24;;;;;;;31.65;13.13;;;;;;;4.25;100.00;102993.47;5088274;28;20020;-75
2024/02/02 00:34:49;;;;;;;33.47;13.70;;;;;;;4.27;100.00;102990.94;5085518;28;20036;-74
2024/02/02 00:37:14;;;;;;;31.42;13.27;;;;;;;4.28;100.00;102987.50;5086590;28;20060;-71
2024/02/02 00:39:40;;;;;;;30.85;13.27;;;;;;;4.30;100.00;102986.78;5083181;28;20039;-75
2024/02/02 00:42:05;;;;;;;30.90;13.15;;;;;;;4.31;100.00;102985.06;5088062;28;20028;-76
2024/02/02 00:44:31;;;;;;;31.83;13.27;;;;;;;4.33;100.00;102973.00;5084644;28;20036;-73
2024/02/02 00:46:56;;;;;;;33.38;13.90;;;;;;;4.34;100.00;102961.72;5086843;28;20464;-74
2024/02/02 00:49:23;;;;;;;31.13;13.50;;;;;;;4.33;100.00;102954.66;5085776;28;20056;-72
2024/02/02 00:51:49;;;;;;;31.63;13.70;;;;;;;4.32;100.00;102931.91;5085470;28;20037;-74
2024/02/02 00:54:15;;;;;;;32.80;13.30;;;;;;;4.30;100.00;102939.66;5086250;28;20027;-77
2024/02/02 00:56:40;;;;;;;30.35;13.77;;;;;;;4.30;100.00;102937.03;5083842;28;20035;-71
2024/02/02 00:59:05;;;;;;;32.13;13.43;;;;;;;4.31;100.00;102948.41;5085736;28;20398;-73
2024/02/02 01:01:31;;;;;;;30.63;13.48;;;;;;;4.32;100.00;102964.22;5083503;28;20383;-75
2024/02/02 01:03:56;;;;;;;31.83;13.20;;;;;;;4.34;100.00;102967.84;5084850;28;20037;-77
2024/02/02 01:06:21;;;;;;;32.22;12.77;;;;;;;4.36;100.00;102970.56;5084814;28;20060;-72
2024/02/02 01:08:47;;;;;;;31.42;12.82;;;;;;;4.39;100.00;102981.25;5084477;28;20395;-71
2024/02/02 01:11:12;;;;;;;29.60;12.80;;;;;;;4.40;100.00;102977.81;5086199;28;20024;-74
2024/02/02 01:13:38;;;;;;;30.05;12.85;;;;;;;4.43;100.00;102972.78;5083267;28;20025;-78
2024/02/02 01:16:03;;;;;;;32.95;13.25;;;;;;;4.42;100.00;102975.28;5086494;28;20432;-79
2024/02/02 01:18:29;;;;;;;31.70;12.63;;;;;;;4.45;100.00;102975.50;5084091;28;20082;-77
2024/02/02 01:20:56;;;;;;;31.15;12.77;;;;;;;4.42;100.00;102970.94;5085877;28;20052;-78
2024/02/02 01:23:21;;;;;;;29.58;13.07;;;;;;;4.41;100.00;102968.25;5085580;28;20081;-78
2024/02/02 01:25:47;;;;;;;30.85;12.82;;;;;;;4.42;100.00;102947.38;5084325;28;20566;-79
2024/02/02 01:28:12;;;;;;;32.00;12.77;;;;;;;4.42;100.00;102950.00;5085073;28;20044;-78
2024/02/02 01:30:37;;;;;;;32.90;12.65;;;;;;;4.42;100.00;102962.19;5083206;28;20494;-78
2024/02/02 01:33:04;;;;;;;33.58;13.05;;;;;;;4.44;100.00;102965.81;5086690;28;20124;-78
2024/02/02 01:35:29;;;;;;;32.67;13.20;;;;;;;4.41;100.00;102958.66;5083645;28;20389;-79
2024/02/02 01:37:55;;;;;;;30.88;12.82;;;;;;;4.40;100.00;102946.41;5085443;28;20040;-79
2024/02/02 01:40:20;;;;;;;29.23;11.93;;;;;;;4.51;100.00;102941.81;5084638;28;20060;-78
2024/02/02 01:42:45;;;;;;;28.77;10.98;;;;;;;4.48;100.00;102945.13;5083700;28;20047;-78
2024/02/02 01:45:11;;;;;;;29.60;11.52;;;;;;;4.49;100.00;102939.09;5086014;28;20028;-78
2024/02/02 01:47:36;;;;;;;30.02;11.20;;;;;;;4.46;100.00;102928.44;5082182;28;20020;-79
2024/02/02 01:50:02;;;;;;;30.67;11.55;;;;;;;4.47;100.00;102926.72;5085472;28;20467;-77
2024/02/02 01:52:29;;;;;;;29.35;10.52;;;;;;;4.52;100.00;102917.44;5083078;28;20074;-72
2024/02/02 01:54:55;;;;;;;30.67;10.93;;;;;;;4.53;100.00;102916.63;5084568;28;20428;-71
2024/02/02 01:57:21;;;;;;;27.65;10.18;;;;;;;4.53;100.00;102928.00;5084027;28;20105;-71
2024/02/02 01:59:47;;;;;;;28.33;10.48;;;;;;;4.51;100.00;102923.47;5083215;28;20460;-71
2024/02/02 02:02:13;;;;;;;29.00;10.10;;;;;;;4.54;100.00;102926.28;5085116;28;20055;-71
2024/02/02 02:04:41;;;;;;;29.25;9.40;;;;;;;4.53;100.00;102938.50;5081950;28;20051;-70
2024/02/02 02:07:07;;;;;;;29.55;9.63;;;;;;;4.54;100.00;102931.53;5078396;28;20489;-70
2024/02/02 02:09:34;;;;;;;26.52;9.15;;;;;;;4.54;100.00;102921.03;5085171;28;20023;-71
2024/02/02 02:12:01;;;;;;;30.45;10.15;;;;;;;4.52;100.00;102920.06;5082383;28;20021;-70
2024/02/02 02:14:26;;;;;;;31.20;9.63;;;;;;;4.51;100.00;102911.31;5084386;28;20486;-70
2024/02/02 02:16:52;;;;;;;25.98;9.40;;;;;;;4.50;100.00;102896.38;5083413;28;20059;-70
2024/02/02 02:19:17;;;;;;;29.67;9.30;;;;;;;4.54;100.00;102893.16;5083363;28;20364;-77
2024/02/02 02:21:43;;;;;;;27.95;9.02;;;;;;;4.51;100.00;102890.34;5084918;28;20463;-74
2024/02/02 02:24:09;;;;;;;28.70;9.32;;;;;;;4.53;100.00;102891.34;5081910;28;20028;-76
2024/02/02 02:26:35;;;;;;;27.40;9.18;;;;;;;4.49;100.00;102877.97;5076230;28;20483;-76
2024/02/02 02:29:00;;;;;;;29.10;9.45;;;;;;;4.48;100.00;102877.03;5085175;28;20127;-74
2024/02/02 02:31:27;;;;;;;30.08;9.00;;;;;;;4.58;100.00;102873.28;5083018;28;20386;-71
2024/02/02 02:33:52;;;;;;;27.85;8.95;;;;;;;4.57;100.00;102870.56;5083804;28;20032;-71
2024/02/02 02:36:18;;;;;;;29.65;9.40;;;;;;;4.52;100.00;102879.03;5082985;28;20032;-74
2024/02/02 02:38:44;;;;;;;27.60;9.38;;;;;;;4.51;100.00;102889.44;5082254;28;20032;-74
2024/02/02 02:41:10;;;;;;;30.48;10.20;;;;;;;4.53;100.00;102890.44;5085331;28;20471;-71
2024/02/02 02:43:35;;;;;;;28.33;9.00;;;;;;;4.59;100.00;102877.72;5080275;28;20048;-75
2024/02/02 02:46:00;;;;;;;30.08;9.07;;;;;;;4.53;100.00;102865.16;5084484;28;20032;-72
2024/02/02 02:48:26;;;;;;;28.67;8.98;;;;;;;4.52;100.00;102865.94;5082925;28;20020;-76
2024/02/02 02:50:52;;;;;;;27.63;8.25;;;;;;;4.55;100.00;102867.84;5082081;28;20020;-70
2024/02/02 02:53:17;;;;;;;25.92;8.43;;;;;;;4.55;100.00;102867.84;5083872;28;20043;-69
2024/02/02 02:55:43;;;;;;;28.98;9.30;;;;;;;4.52;100.00;102865.94;5081908;28;20025;-70
2024/02/02 02:58:08;;;;;;;26.73;8.55;;;;;;;4.48;100.00;102855.19;5084378;28;20065;-70
2024/02/02 03:00:34;;;;;;;27.88;9.20;;;;;;;4.46;100.00;102864.69;5081636;28;20017;-71
2024/02/02 03:03:00;;;;;;;29.95;9.48;;;;;;;4.46;100.00;102868.19;5084063;28;20395;-71
2024/02/02 03:05:27;;;;;;;28.00;8.60;;;;;;;4.45;100.00;102860.25;5082502;28;20211;-75
2024/02/02 03:07:52;;;;;;;26.63;8.52;;;;;;;4.47;100.00;102859.53;5083305;28;20027;-73
2024/02/02 03:10:18;;;;;;;27.42;8.60;;;;;;;4.42;100.00;102857.44;5083630;28;20391;-76
2024/02/02 03:12:43;;;;;;;25.75;8.68;;;;;;;4.42;100.00;102855.72;5081567;28;20029;-73
2024/02/02 03:15:09;;;;;;;26.67;9.05;;;;;;;4.45;100.00;102860.25;5084625;28;20028;-70
2024/02/02 03:17:34;;;;;;;28.15;9.20;;;;;;;4.43;100.00;102861.88;5079733;28;20044;-71
2024/02/02 03:19:59;;;;;;;27.17;8.68;;;;;;;4.46;100.00;102856.81;5083697;28;20429;-70
2024/02/02 03:22:25;;;;;;;26.80;8.82;;;;;;;4.45;100.00;102848.03;5082397;28;20128;-72
2024/02/02 03:24:50;;;;;;;29.25;8.45;;;;;;;4.45;100.00;102839.28;5081920;28;20495;-72
2024/02/02 03:27:16;;;;;;;25.98;8.98;;;;;;;4.43;100.00;102833.06;5083439;28;20040;-71
2024/02/02 03:29:41;;;;;;;25.63;8.20;;;;;;;4.39;100.00;102821.47;5081217;28;20111;-75
2024/02/02 03:32:08;;;;;;;28.88;9.15;;;;;;;4.37;100.00;102815.25;5084236;28;20115;-71
2024/02/02 03:34:33;;;;;;;28.05;8.73;;;;;;;4.35;100.00;102812.56;5080966;28;20495;-70
2024/02/02 03:36:58;;;;;;;25.58;8.40;;;;;;;4.34;100.00;102802.00;5083336;28;20035;-70
2024/02/02 03:39:24;;;;;;;26.30;8.20;;;;;;;4.30;100.00;102813.06;5082147;28;20028;-70
2024/02/02 03:41:50;;;;;;;27.98;8.80;;;;;;;4.23;100.00;102817.00;5080648;28;20112;-70
2024/02/02 03:44:15;;;;;;;27.52;8.75;;;;;;;4.21;100.00;102817.72;5083475;28;20032;-72
2024/02/02 03:46:41;;;;;;;27.10;8.07;;;;;;;4.14;100.00;102816.47;5080898;28;20041;-70
2024/02/02 03:49:06;;;;;;;26.40;8.05;;;;;;;4.16;100.00;102815.72;5084007;28;20463;-76
2024/02/02 03:51:31;;;;;;;29.40;9.18;;;;;;;4.08;100.00;102798.66;5081100;28;20066;-70
2024/02/02 03:53:57;;;;;;;26.95;8.80;;;;;;;4.11;100.00;102800.56;5082772;28;20025;-70
2024/02/02 03:56:22;;;;;;;27.23;8.70;;;;;;;4.06;100.00;102812.44;5082242;28;20082;-70
2024/02/02 03:58:47;;;;;;;25.70;8.07;;;;;;;4.00;100.00;102807.72;5081623;28;20041;-70
2024/02/02 04:01:13;;;;;;;26.15;8.10;;;;;;;3.99;100.00;102808.53;5083636;28;20028;-70
2024/02/02 04:03:38;;;;;;;26.90;8.57;;;;;;;3.96;100.00;102806.66;5080622;28;20047;-70
2024/02/02 04:06:04;;;;;;;28.83;8.77;;;;;;;3.93;100.00;102814.31;5083788;28;20024;-71
2024/02/02 04:08:30;;;;;;;27.02;8.60;;;;;;;3.93;100.00;102816.00;5081308;28;20487;-76
2024/02/02 04:10:55;;;;;;;26.25;8.45;;;;;;;3.94;100.00;102808.25;5087012;28;20037;-76
2024/02/02 04:13:21;;;;;;;27.15;8.25;;;;;;;3.94;100.00;102792.53;5085330;28;20115;-76
2024/02/02 04:15:46;;;;;;;28.42;8.75;;;;;;;3.94;100.00;102796.88;5085346;28;20116;-77
2024/02/02 04:18:12;;;;;;;27.85;8.88;;;;;;;3.91;100.00;102800.22;5088013;28;20036;-76
2024/02/02 04:20:37;;;;;;;26.25;7.88;;;;;;;3.91;100.00;102786.22;5084563;28;20475;-75
2024/02/02 04:23:02;;;;;;;25.85;8.55;;;;;;;3.96;100.00;102790.03;5087002;28;20119;-71
2024/02/02 04:25:28;;;;;;;25.50;8.13;;;;;;;3.98;100.00;102798.91;5084796;28;20529;-72
2024/02/02 04:27:53;;;;;;;26.42;8.15;;;;;;;3.95;100.00;102799.59;5085602;28;20463;-70
2024/02/02 04:30:19;;;;;;;25.33;7.80;;;;;;;3.93;100.00;102811.69;5086389;28;20032;-72
2024/02/02 04:32:44;;;;;;;27.10;7.80;;;;;;;3.92;100.00;102807.25;5084534;28;20519;-73
2024/02/02 04:35:10;;;;;;;24.50;7.50;;;;;;;3.92;100.00;102793.28;5087231;28;20028;-70
2024/02/02 04:37:35;;;;;;;26.63;7.90;;;;;;;3.89;100.00;102800.91;5083871;28;20483;-71
2024/02/02 04:40:01;;;;;;;27.55;8.18;;;;;;;3.83;100.00;102793.63;5085134;28;20036;-73
2024/02/02 04:42:26;;;;;;;28.30;7.95;;;;;;;3.86;100.00;102803.34;5084813;28;20082;-70
2024/02/02 04:44:52;;;;;;;24.20;7.00;;;;;;;3.92;100.00;102802.03;5084031;28;20123;-71
2024/02/02 04:47:17;;;;;;;26.40;7.53;;;;;;;3.97;100.00;102797.06;5085975;28;20024;-70
2024/02/02 04:49:42;;;;;;;26.17;7.07;;;;;;;3.97;100.00;102807.53;5083705;28;20534;-71
2024/02/02 04:52:08;;;;;;;26.15;6.90;;;;;;;3.94;100.00;102808.25;5087138;28;20024;-72
2024/02/02 04:54:34;;;;;;;24.35;7.15;;;;;;;3.99;100.00;102808.53;5083621;28;20020;-70
2024/02/02 04:56:59;;;;;;;26.33;7.10;;;;;;;3.97;100.00;102816.28;5086076;28;20039;-70
2024/02/02 04:59:24;;;;;;;25.83;7.32;;;;;;;3.99;100.00;102800.69;5083771;28;20103;-70
2024/02/02 05:01:50;;;;;;;24.95;6.82;;;;;;;4.01;100.00;102809.56;5084498;28;20032;-70
2024/02/02 05:04:15;;;;;;;25.55;7.15;;;;;;;4.01;100.00;102791.22;5086387;28;20465;-78
2024/02/02 05:06:41;;;;;;;27.30;7.18;;;;;;;4.00;100.00;102786.78;5083624;28;20037;-78
2024/02/02 05:09:06;;;;;;;26.67;7.38;;;;;;;4.01;100.00;102781.66;5079309;28;20074;-78
2024/02/02 05:11:32;;;;;;;25.15;6.88;;;;;;;4.01;100.00;102783.38;5086477;28;20454;-77
2024/02/02 05:13:57;;;;;;;24.60;6.78;;;;;;;4.05;100.00;102781.84;5084303;28;20066;-78
2024/02/02 05:16:23;;;;;;;24.95;6.60;;;;;;;4.06;100.00;102784.56;5084641;28;20159;-77
2024/02/02 05:18:48;;;;;;;26.15;7.13;;;;;;;4.03;100.00;102773.91;5085528;28;20028;-78
2024/02/02 05:21:14;;;;;;;26.75;6.90;;;;;;;4.05;100.00;102766.13;5082589;28;20024;-80
2024/02/02 05:23:39;;;;;;;24.58;6.90;;;;;;;4.12;100.00;102761.41;5086330;28;20059;-79
2024/02/02 05:26:05;;;;;;;25.20;6.35;;;;;;;4.07;100.00;102770.66;5082896;28;20491;-79
2024/02/02 05:28:30;;;;;;;27.60;6.90;;;;;;;4.06;100.00;102755.75;5085600;28;20154;-78
2024/02/02 05:30:55;;;;;;;27.15;7.05;;;;;;;4.03;100.00;102758.19;5084170;28;20146;-78
2024/02/02 05:33:21;;;;;;;25.90;6.43;;;;;;;3.99;100.00;102758.81;5084232;28;20028;-78
2024/02/02 05:35:46;;;;;;;27.48;6.90;;;;;;;4.01;100.00;102760.72;5085375;28;20031;-78
2024/02/02 05:38:12;;;;;;;25.88;6.90;;;;;;;3.98;100.00;102749.16;5082427;28;20036;-78
2024/02/02 05:40:37;;;;;;;25.10;6.78;;;;;;;3.93;100.00;102742.72;5086226;28;20063;-78
2024/02/02 05:43:02;;;;;;;23.40;6.00;;;;;;;3.96;100.00;102748.16;5082920;28;20029;-78
2024/02/02 05:45:28;;;;;;;27.85;6.97;;;;;;;3.89;100.00;102745.97;5084885;28;20078;-71
2024/02/02 05:47:53;;;;;;;23.73;6.10;;;;;;;3.91;100.00;102745.25;5084380;28;20020;-71
2024/02/02 05:50:19;;;;;;;25.80;6.38;;;;;;;3.87;100.00;102726.66;5081967;28;20078;-71
2024/02/02 05:52:45;;;;;;;24.52;6.35;;;;;;;3.83;100.00;102736.94;5085565;28;20040;-70
2024/02/02 05:55:10;;;;;;;25.13;6.63;;;;;;;3.79;100.00;102724.47;5082268;28;20030;-70
2024/02/02 05:57:36;;;;;;;24.17;6.32;;;;;;;3.77;100.00;102727.78;5085417;28;20040;-70
2024/02/02 06:00:01;;;;;;;24.95;6.55;;;;;;;3.73;100.00;102721.47;5082907;28;20127;-76
2024/02/02 06:02:27;;;;;;;24.73;6.57;;;;;;;3.69;100.00;102727.31;5084114;28;20396;-72
2024/02/02 06:04:52;;;;;;;26.42;6.88;;;;;;;3.68;100.00;102728.13;5084245;28;20028;-75
2024/02/02 06:07:17;;;;;;;25.33;6.47;;;;;;;3.63;100.00;102721.72;5082980;28;20039;-75
2024/02/02 06:09:43;;;;;;;24.45;6.20;;;;;;;3.65;100.00;102720.09;5085375;28;20028;-76
2024/02/02 06:12:08;;;;;;;26.75;7.03;;;;;;;3.65;100.00;102723.59;5082298;28;20364;-77
2024/02/02 06:14:33;;;;;;;25.48;6.60;;;;;;;3.63;100.00;102716.50;5085515;28;20352;-74
2024/02/02 06:16:59;;;;;;;26.05;6.47;;;;;;;3.60;100.00;102717.19;5083424;28;20059;-77
2024/02/02 06:19:24;;;;;;;29.52;7.30;;;;;;;3.60;100.00;102732.00;5083463;28;20028;-77
2024/02/02 06:21:50;;;;;;;25.75;6.63;;;;;;;3.58;100.00;102730.97;5084165;28;20082;-76
2024/02/02 06:24:15;;;;;;;25.02;6.63;;;;;;;3.61;100.00;102728.53;5081996;28;20036;-71
2024/02/02 06:26:40;;;;;;;26.17;7.53;;;;;;;3.63;100.00;102726.94;5085090;28;20043;-71
2024/02/02 06:29:06;;;;;;;26.05;6.70;;;;;;;3.55;100.00;102734.28;5081586;28;20063;-72
2024/02/02 06:31:31;;;;;;;28.90;7.40;;;;;;;3.62;100.00;102725.13;5084111;28;20596;-77
2024/02/02 06:33:57;;;;;;;30.17;7.18;;;;;;;3.63;100.00;102737.41;5080867;28;20073;-71
2024/02/02 06:36:24;;;;;;;26.58;7.25;;;;;;;3.64;100.00;102729.66;5064731;28;20059;-74
2024/02/02 06:38:51;;;;;;;27.02;6.95;;;;;;;3.65;100.00;102735.78;5083902;28;20036;-79
2024/02/02 06:41:16;;;;;;;26.42;7.10;;;;;;;3.67;100.00;102739.41;5082063;28;20150;-76
2024/02/02 06:43:41;;;;;;;24.98;6.70;;;;;;;3.66;100.00;102732.38;5083567;28;20498;-74
2024/02/02 06:46:07;;;;;;;28.52;7.30;;;;;;;3.69;100.00;102735.16;5081587;28;20188;-76
2024/02/02 06:48:32;;;;;;;24.55;6.60;;;;;;;3.72;100.00;102743.22;5084578;28;20569;-75
2024/02/02 06:50:58;;;;;;;26.45;6.80;;;;;;;3.78;100.00;102743.59;5082979;28;20028;-71
2024/02/02 06:53:23;;;;;;;24.45;6.72;;;;;;;3.81;100.00;102749.00;5082932;28;20499;-72
2024/02/02 06:55:49;;;;;;;27.20;7.32;;;;;;;3.87;100.00;102752.81;5082695;28;20123;-71
2024/02/02 06:58:41;;;;;;;26.95;7.10;;;;;;;3.98;100.00;102751.78;5081453;28;20028;-78
2024/02/02 07:01:10;;;;;;;27.97;7.43;;;;;;;3.97;100.00;102756.09;5070610;28;20041;-73
2024/02/02 07:03:36;;;;;;;26.75;7.10;;;;;;;3.98;100.00;102736.97;5084241;28;20307;-71
2024/02/02 07:06:03;;;;;;;26.90;7.38;;;;;;;3.99;100.00;102759.72;5082035;28;20035;-71
2024/02/02 07:08:30;;;;;;;25.15;6.90;;;;;;;3.99;100.00;102756.19;5083478;28;20024;-71
2024/02/02 07:11:11;;;;;;;27.05;7.57;;;;;;;4.05;100.00;102753.97;5080377;28;20036;-71
2024/02/02 07:13:46;;;;;;;28.73;7.30;;;;;;;4.07;100.00;102762.81;5080971;28;20031;-70
2024/02/02 07:16:32;;;;;;;27.77;6.93;;;;;;;4.14;100.00;102774.56;5077601;28;20463;-75
2024/02/02 07:18:57;;;;;;;27.98;8.05;;;;;;;4.10;100.00;102770.84;5080962;28;20059;-72
2024/02/02 07:21:33;;;;;;;25.23;7.28;;;;;;;4.15;100.00;102766.81;5082991;28;20103;-71
2024/02/02 07:23:59;;;;;;;26.00;7.63;;;;;;;4.14;100.00;102772.84;5083243;28;20032;-71
2024/02/02 07:26:28;;;;;;;26.23;7.25;;;;;;;4.16;100.00;102772.94;5082400;28;20055;-71
2024/02/02 07:28:54;;;;;;;26.95;7.70;;;;;;;4.14;100.00;102777.19;5082444;28;20021;-71
2024/02/02 07:31:37;;;;;;;26.25;7.38;;;;;;;4.23;100.00;102782.09;5083231;28;20031;-71
2024/02/02 07:34:25;;;;;;;26.27;7.90;;;;;;;4.21;100.00;102767.97;5083499;28;20063;-71
2024/02/02 07:36:50;;;;;;;27.25;7.93;;;;;;;4.27;100.00;102779.75;5079400;28;20025;-71
2024/02/02 07:39:30;;;;;;;26.83;7.93;;;;;;;4.27;100.00;102778.84;5083506;28;20059;-72
2024/02/02 07:41:57;;;;;;;27.73;8.32;;;;;;;4.26;100.00;102779.66;5082361;28;20034;-71
2024/02/02 07:44:23;;;;;;;27.02;8.18;;;;;;;4.27;100.00;102773.63;5084695;28;20020;-71
2024/02/02 07:46:49;;;;;;;27.38;8.43;;;;;;;4.26;100.00;102764.84;5084449;28;20098;-71
2024/02/02 07:49:14;;;;;;;28.02;8.45;;;;;;;4.31;100.00;102759.88;5086810;28;20111;-71
2024/02/02 07:51:43;;;;;;;28.30;8.80;;;;;;;4.33;100.00;102766.13;5083582;28;20032;-71
2024/02/02 07:54:09;;;;;;;27.50;9.02;;;;;;;4.38;100.00;102767.28;5080621;28;20021;-71
2024/02/02 07:56:34;;;;;;;31.13;9.15;;;;;;;4.38;100.00;102761.16;5087428;28;20036;-71
2024/02/02 07:59:00;;;;;;;30.40;9.63;;;;;;;4.41;100.00;102754.38;5085791;28;20036;-71
2024/02/02 08:01:28;;;;;;;28.17;9.40;;;;;;;4.44;100.00;102754.59;5084923;28;20039;-72
2024/02/02 08:03:53;;;;;;;28.98;9.27;;;;;;;4.50;100.00;102757.56;5085569;28;20371;-71
2024/02/02 08:06:19;;;;;;;32.75;10.00;;;;;;;4.49;100.00;102765.34;5085563;28;20039;-71
2024/02/02 08:08:44;;;;;;;28.50;10.20;;;;;;;4.49;100.00;102762.72;5087492;28;20107;-75
2024/02/02 08:11:10;;;;;;;27.95;10.32;;;;;;;4.57;100.00;102765.78;5084474;28;20086;-76
2024/02/02 08:13:35;;;;;;;31.08;11.15;;;;;;;4.57;100.00;102750.97;5087151;28;20043;-71
2024/02/02 08:16:01;;;;;;;29.60;10.82;;;;;;;4.59;100.00;102751.03;5085298;28;20031;-72
2024/02/02 08:18:28;;;;;;;28.42;10.27;;;;;;;4.62;100.00;102749.53;5086122;28;20028;-72
2024/02/02 08:20:53;;;;;;;30.30;10.90;;;;;;;4.63;100.00;102751.34;5086348;28;20371;-71
2024/02/02 08:23:18;;;;;;;29.55;11.32;;;;;;;4.66;100.00;102746.28;5084770;28;20039;-74
2024/02/02 08:25:44;;;;;;;29.60;11.20;;;;;;;4.69;100.00;102748.19;5085941;28;20380;-71
2024/02/02 08:28:09;;;;;;;30.75;11.85;;;;;;;4.71;100.00;102741.31;5084089;28;20028;-71
2024/02/02 08:30:35;;;;;;;29.60;11.68;;;;;;;4.75;100.00;102739.75;5085696;28;20494;-73
2024/02/02 08:33:00;;;;;;;32.78;12.68;;;;;;;4.75;100.00;102743.28;5083816;28;20024;-71
2024/02/02 08:35:28;;;;;;;30.50;10.80;;;;;;;4.80;100.00;102748.81;5085508;28;20021;-71
2024/02/02 08:37:58;;;;;;;29.42;10.75;;;;;;;4.79;100.00;102734.81;5086098;28;20036;-71
2024/02/02 08:40:41;;;;;;;29.35;11.30;;;;;;;4.81;100.00;102741.03;5085319;28;20029;-74
2024/02/02 08:43:12;;;;;;;29.65;11.25;;;;;;;4.84;100.00;102724.59;5084195;28;20048;-71
2024/02/02 08:45:52;;;;;;;31.75;11.85;;;;;;;4.87;100.00;102724.75;5085694;28;20028;-71
2024/02/02 08:48:24;;;;;;;30.10;11.13;;;;;;;4.88;100.00;102727.47;5081337;28;20028;-71
2024/02/02 08:50:58;;;;;;;33.17;13.07;;;;;;;4.92;100.00;102719.78;5086268;28;20016;-71
2024/02/02 08:53:24;;;;;;;32.88;11.48;;;;;;;4.93;100.00;102721.59;5084922;28;20029;-72
2024/02/02 08:55:50;;;;;;;31.35;12.55;;;;;;;4.94;100.00;102712.91;5085147;28;20107;-71
2024/02/02 08:58:33;;;;;;;30.75;12.50;;;;;;;4.98;100.00;102722.72;5083783;28;20351;-71
2024/02/02 09:00:59;;;;;;;32.53;12.50;;;;;;;4.99;100.00;102720.19;5084959;28;20032;-72
2024/02/02 09:03:36;;;;;;;33.25;13.10;;;;;;;5.07;100.00;102715.41;5084986;28;20031;-72
2024/02/02 09:06:07;;;;;;;32.20;13.18;;;;;;;5.07;100.00;102705.81;5084405;28;20063;-72
2024/02/02 09:08:39;;;;;;;31.27;13.90;;;;;;;5.11;100.00;102712.16;5085770;28;20108;-72
2024/02/02 09:11:21;;;;;;;32.42;13.40;;;;;;;5.16;100.00;102715.03;5083747;28;20028;-71
2024/02/02 09:13:47;;;;;;;34.47;14.10;;;;;;;5.17;100.00;102714.19;5080345;28;20025;-74
2024/02/02 09:16:17;;;;;;;32.83;14.23;;;;;;;5.17;100.00;102704.63;5078606;28;20038;-71
2024/02/02 09:18:45;;;;;;;34.97;16.60;;;;;;;5.17;100.00;102708.94;5084682;28;20033;-73
2024/02/02 09:21:14;;;;;;;33.28;15.13;;;;;;;5.19;100.00;102708.22;5084403;28;20429;-77
2024/02/02 09:23:48;;;;;;;32.85;15.73;;;;;;;5.24;100.00;102706.78;5084873;28;20024;-72
2024/02/02 09:26:16;;;;;;;33.33;16.80;;;;;;;5.23;100.00;102715.47;5083539;28;20433;-71
2024/02/02 09:28:45;;;;;;;33.17;17.08;;;;;;;5.26;100.00;102711.19;5085119;28;20501;-73
2024/02/02 09:31:20;;;;;;;38.28;18.27;;;;;;;5.31;100.00;102720.22;5083871;28;20082;-76
2024/02/02 09:33:49;;;;;;;35.55;17.88;;;;;;;5.35;100.00;102719.59;5086032;28;20046;-73
2024/02/02 09:36:15;;;;;;;38.88;19.02;;;;;;;5.32;100.00;102708.94;5083486;28;20187;-77
2024/02/02 09:38:53;;;;;;;36.53;17.50;;;;;;;5.39;100.00;102713.69;5084800;28;20032;-77
2024/02/02 09:41:32;;;;;;;37.55;19.05;;;;;;;5.41;100.00;102715.56;5082694;28;20024;-75
2024/02/02 09:44:25;;;;;;;36.67;19.80;;;;;;;5.47;100.00;102720.25;5079759;28;20349;-76
2024/02/02 09:46:59;;;;;;;37.60;19.13;;;;;;;5.46;100.00;102726.34;5078494;28;20051;-73
2024/02/02 09:50:23;;;;;;;37.78;19.58;;;;;;;5.53;100.00;102725.84;5079104;28;20044;-76
2024/02/02 09:52:54;;;;;;;40.30;19.55;;;;;;;5.51;100.00;102713.47;4996727;28;20054;-71
2024/02/02 09:55:29;;;;;;;37.88;20.50;;;;;;;5.56;100.00;102725.09;5071780;28;20074;-71
2024/02/02 09:58:07;;;;;;;36.28;19.55;;;;;;;5.56;100.00;102722.47;5079054;28;20032;-71
2024/02/02 10:01:00;;;;;;;37.10;20.40;;;;;;;5.59;100.00;102723.56;5084413;28;20019;-71
2024/02/02 10:03:31;;;;;;;37.30;20.05;;;;;;;5.64;100.00;102712.41;5077440;28;20483;-74
2024/02/02 10:05:59;;;;;;;35.35;19.77;;;;;;;5.63;100.00;102713.22;5085307;28;20020;-76
2024/02/02 10:08:57;;;;;;;38.40;19.83;;;;;;;5.72;100.00;102721.59;5082020;28;20028;-71
2024/02/02 10:11:44;;;;;;;36.58;19.20;;;;;;;5.68;100.00;102732.72;5078282;28;20475;-75
2024/02/02 10:14:41;;;;;;;35.28;18.27;;;;;;;5.77;100.00;102728.00;5081448;28;20040;-77
2024/02/02 10:17:26;;;;;;;34.50;19.60;;;;;;;5.75;100.00;102729.63;5081570;28;20025;-77
2024/02/02 10:20:31;;;;;;;36.08;20.45;;;;;;;5.80;100.00;102722.91;5078031;28;20028;-77
2024/02/02 10:23:31;;;;;;;37.53;20.38;;;;;;;5.86;100.00;102732.84;5057175;28;20394;-74
2024/02/02 10:26:14;;;;;;;40.45;19.73;;;;;;;5.89;100.00;102719.88;5078876;28;20056;-76
2024/02/02 10:28:57;;;;;;;39.95;19.73;;;;;;;5.90;100.00;102717.34;5083944;28;20024;-70
2024/02/02 10:31:42;;;;;;;36.33;19.48;;;;;;;5.91;100.00;102700.78;5077371;28;20427;-72
2024/02/02 10:34:34;;;;;;;36.55;18.63;;;;;;;5.99;100.00;102721.31;5082833;28;20028;-77
2024/02/02 10:37:20;;;;;;;37.75;20.08;;;;;;;5.96;100.00;102739.50;5079696;28;20115;-75
2024/02/02 10:40:06;;;;;;;35.75;18.40;;;;;;;5.98;100.00;102741.41;5082747;28;20068;-77
2024/02/02 10:42:58;;;;;;;38.25;19.75;;;;;;;6.02;100.00;102727.63;5078889;28;20412;-77
2024/02/02 10:45:58;;;;;;;37.35;19.58;;;;;;;6.07;100.00;102725.22;5067121;28;20120;-71
2024/02/02 10:48:44;;;;;;;39.33;20.70;;;;;;;6.03;100.00;102736.38;5077576;28;20035;-71
2024/02/02 10:51:18;;;;;;;36.95;19.42;;;;;;;6.16;100.00;102738.88;5081639;28;20020;-71
2024/02/02 10:53:44;;;;;;;41.00;20.40;;;;;;;6.11;100.00;102733.34;5082199;28;20048;-70
2024/02/02 10:56:22;;;;;;;41.53;19.70;;;;;;;6.13;100.00;102722.03;5083552;28;20098;-71
2024/02/02 10:59:18;;;;;;;38.80;19.90;;;;;;;6.22;100.00;102725.16;5081768;28;20032;-72
2024/02/02 11:02:06;;;;;;;37.47;18.83;;;;;;;6.23;100.00;102721.69;5082725;28;20033;-74
2024/02/02 11:04:35;;;;;;;36.83;18.27;;;;;;;6.26;100.00;102707.00;5079542;28;20021;-74
2024/02/02 11:07:18;;;;;;;36.72;18.92;;;;;;;6.25;100.00;102714.81;5084484;28;20485;-76
2024/02/02 11:10:03;;;;;;;35.45;18.90;;;;;;;6.26;100.00;102717.50;5083803;28;20021;-75
2024/02/02 11:12:35;;;;;;;36.72;18.67;;;;;;;6.38;100.00;102709.34;5078111;28;20028;-71
2024/02/02 11:15:28;;;;;;;36.03;18.77;;;;;;;6.45;100.00;102692.16;5081999;28;20027;-71
2024/02/02 11:18:15;;;;;;;37.10;18.73;;;;;;;6.45;100.00;102673.78;5077578;28;20035;-71
2024/02/02 11:21:11;;;;;;;36.22;18.77;;;;;;;6.57;100.00;102670.88;5082260;28;20029;-74
2024/02/02 11:23:43;;;;;;;36.88;17.95;;;;;;;6.57;100.00;102669.16;5083727;28;20032;-76